createdAt,value
2023-04-10T00:00:57.751Z,37.40
2023-04-10T00:03:27.822Z,38.72
2023-04-10T00:05:58.067Z,36.95
2023-04-10T00:08:28.622Z,35.05
2023-04-10T00:10:57.889Z,39.90
2023-04-10T00:13:26.517Z,36.10
2023-04-10T00:15:58.119Z,34.25
2023-04-10T00:18:32.655Z,36.67
2023-04-10T00:21:03.351Z,38.88
2023-04-10T00:23:35.600Z,35.28
2023-04-10T00:26:06.323Z,33.53
2023-04-10T00:28:38.192Z,32.17
2023-04-10T00:31:09.992Z,38.63
2023-04-10T00:33:39.102Z,33.17
2023-04-10T00:36:08.581Z,34.47
2023-04-10T00:38:39.041Z,33.90
2023-04-10T00:41:09.168Z,31.80
2023-04-10T00:43:40.659Z,35.53
2023-04-10T00:46:12.422Z,35.75
2023-04-10T00:48:42.030Z,33.67
2023-04-10T00:51:11.357Z,31.83
2023-04-10T00:53:41.072Z,34.40
2023-04-10T00:56:11.625Z,33.47
2023-04-10T00:58:41.421Z,33.42
2023-04-10T01:01:12.293Z,31.58
2023-04-10T01:03:43.661Z,34.78
2023-04-10T01:06:28.524Z,33.20
2023-04-10T01:09:06.437Z,31.05
2023-04-10T01:11:50.095Z,33.60
2023-04-10T01:14:32.465Z,30.63
2023-04-10T01:17:15.505Z,32.42
2023-04-10T01:20:14.624Z,34.95
2023-04-10T01:23:37.037Z,28.73
2023-04-10T01:26:09.144Z,33.88
2023-04-10T01:29:05.704Z,34.42
2023-04-10T01:31:43.126Z,34.55
2023-04-10T01:34:18.839Z,31.27
2023-04-10T01:36:56.210Z,29.75
2023-04-10T01:39:28.444Z,32.72
2023-04-10T01:42:00.846Z,30.05
2023-04-10T01:44:36.181Z,28.13
2023-04-10T01:49:43.881Z,29.08
2023-04-10T01:52:14.538Z,28.73
2023-04-10T01:54:51.065Z,27.77
2023-04-10T01:57:22.030Z,31.45
2023-04-10T01:59:53.621Z,26.75
2023-04-10T02:02:23.974Z,28.65
2023-04-10T02:04:55.626Z,29.30
2023-04-10T02:07:37.031Z,28.60
2023-04-10T02:10:15.153Z,26.50
2023-04-10T02:12:54.250Z,28.73
2023-04-10T02:15:34.385Z,26.25
2023-04-10T02:18:08.320Z,24.70
2023-04-10T02:20:38.461Z,23.95
2023-04-10T02:23:08.652Z,22.98
2023-04-10T02:25:38.149Z,21.73
2023-04-10T02:28:08.107Z,25.10
2023-04-10T02:30:39.462Z,23.77
2023-04-10T02:33:09.575Z,25.38
2023-04-10T02:35:41.669Z,22.98
2023-04-10T02:38:15.621Z,23.38
2023-04-10T02:40:46.231Z,22.57
2023-04-10T02:43:15.876Z,21.33
2023-04-10T02:45:48.016Z,20.65
2023-04-10T02:48:16.458Z,20.90
2023-04-10T02:50:47.937Z,21.45
2023-04-10T02:53:20.127Z,22.15
2023-04-10T02:55:48.991Z,21.30
2023-04-10T02:58:17.778Z,21.50
2023-04-10T03:00:53.695Z,20.63
2023-04-10T03:03:22.800Z,20.60
2023-04-10T03:05:53.494Z,19.35
2023-04-10T03:08:24.513Z,21.08
2023-04-10T03:10:54.690Z,19.75
2023-04-10T03:13:28.183Z,21.17
2023-04-10T03:16:00.307Z,19.23
2023-04-10T03:18:30.230Z,19.27
2023-04-10T03:20:59.437Z,17.50
2023-04-10T03:23:28.531Z,19.15
2023-04-10T03:25:58.114Z,19.77
2023-04-10T03:28:27.874Z,19.17
2023-04-10T03:30:58.580Z,16.92
2023-04-10T03:33:27.869Z,16.92
2023-04-10T03:35:57.424Z,19.30
2023-04-10T03:38:27.584Z,18.83
2023-04-10T03:40:57.797Z,18.10
2023-04-10T03:43:27.526Z,16.95
2023-04-10T03:45:59.711Z,19.02
2023-04-10T03:48:32.570Z,15.80
2023-04-10T03:51:02.324Z,15.93
2023-04-10T03:53:36.175Z,16.55
2023-04-10T03:56:05.587Z,17.23
2023-04-10T03:58:34.344Z,14.35
2023-04-10T04:01:06.174Z,15.73
2023-04-10T04:03:34.925Z,16.15
2023-04-10T04:06:04.173Z,15.15
2023-04-10T04:08:36.401Z,16.17
2023-04-10T04:11:06.066Z,15.45
2023-04-10T04:13:35.097Z,16.08
2023-04-10T04:16:06.337Z,16.85
2023-04-10T04:18:34.775Z,18.80
2023-04-10T04:21:09.575Z,17.50
2023-04-10T04:23:39.614Z,15.52
2023-04-10T04:26:10.278Z,16.27
2023-04-10T04:28:39.724Z,13.85
2023-04-10T04:31:10.111Z,17.00
2023-04-10T04:33:39.616Z,14.60
2023-04-10T04:36:10.459Z,18.75
2023-04-10T04:38:40.390Z,17.50
2023-04-10T04:41:09.580Z,16.20
2023-04-10T04:43:39.779Z,16.40
2023-04-10T04:46:12.488Z,17.15
2023-04-10T04:48:44.562Z,15.93
2023-04-10T04:51:19.525Z,16.33
2023-04-10T04:53:49.088Z,19.48
2023-04-10T04:56:18.917Z,17.10
2023-04-10T04:58:48.801Z,16.63
2023-04-10T05:01:21.293Z,16.33
2023-04-10T05:03:50.094Z,13.73
2023-04-10T05:06:22.225Z,18.05
2023-04-10T05:08:54.445Z,18.48
2023-04-10T05:11:26.145Z,16.10
2023-04-10T05:13:55.655Z,15.30
2023-04-10T05:16:27.937Z,19.27
2023-04-10T05:18:58.164Z,17.48
2023-04-10T05:21:27.542Z,17.83
2023-04-10T05:23:56.489Z,17.73
2023-04-10T05:26:25.199Z,18.88
2023-04-10T05:28:55.856Z,19.58
2023-04-10T05:31:26.702Z,17.92
2023-04-10T05:33:58.826Z,17.35
2023-04-10T05:36:27.947Z,19.40
2023-04-10T05:38:56.970Z,19.80
2023-04-10T05:41:26.512Z,19.10
2023-04-10T05:43:56.757Z,20.13
2023-04-10T05:46:27.519Z,22.88
2023-04-10T05:48:57.942Z,20.13
2023-04-10T05:51:28.231Z,20.38
2023-04-10T05:53:57.456Z,18.90
2023-04-10T05:56:33.099Z,20.70
2023-04-10T05:59:06.748Z,19.08
2023-04-10T06:01:37.462Z,20.35
2023-04-10T06:04:08.292Z,18.77
2023-04-10T06:06:37.414Z,20.73
2023-04-10T06:09:06.564Z,17.70
2023-04-10T06:11:35.811Z,21.02
2023-04-10T06:14:05.973Z,19.42
2023-04-10T06:16:37.542Z,18.45
2023-04-10T06:19:06.616Z,19.85
2023-04-10T06:21:39.261Z,17.00
2023-04-10T06:24:08.670Z,16.52
2023-04-10T06:26:40.302Z,16.33
2023-04-10T06:29:09.120Z,18.38
2023-04-10T06:31:39.566Z,17.27
2023-04-10T06:34:10.404Z,19.05
2023-04-10T06:36:39.797Z,18.42
2023-04-10T06:39:08.853Z,16.83
2023-04-10T06:41:38.194Z,17.10
2023-04-10T06:44:10.947Z,15.38
2023-04-10T06:46:41.508Z,16.98
2023-04-10T06:49:10.657Z,14.93
2023-04-10T06:51:39.256Z,17.30
2023-04-10T06:54:11.727Z,16.80
2023-04-10T06:56:40.817Z,17.33
2023-04-10T06:59:11.209Z,14.98
2023-04-10T07:01:43.132Z,15.25
2023-04-10T07:04:12.167Z,18.73
2023-04-10T07:06:40.977Z,14.95
2023-04-10T07:09:10.528Z,18.75
2023-04-10T07:11:40.673Z,16.73
2023-04-10T07:14:09.593Z,17.65
2023-04-10T07:16:38.421Z,19.20
2023-04-10T07:19:08.709Z,15.10
2023-04-10T07:21:38.666Z,14.60
2023-04-10T07:24:08.257Z,14.13
2023-04-10T07:26:37.534Z,16.08
2023-04-10T07:29:07.179Z,16.40
2023-04-10T07:31:37.206Z,16.15
2023-04-10T07:34:07.908Z,13.60
2023-04-10T07:36:40.367Z,14.27
2023-04-10T07:39:09.282Z,14.70
2023-04-10T07:41:38.892Z,15.98
2023-04-10T07:44:08.265Z,14.77
2023-04-10T07:46:37.918Z,14.38
2023-04-10T07:49:09.124Z,15.32
2023-04-10T07:51:38.414Z,15.15
2023-04-10T07:54:08.890Z,13.60
2023-04-10T07:56:38.634Z,14.23
2023-04-10T07:59:08.107Z,14.43
2023-04-10T08:01:36.805Z,13.27
2023-04-10T08:04:16.146Z,13.35
2023-04-10T08:06:45.796Z,13.38
2023-04-10T08:09:14.781Z,12.75
2023-04-10T08:11:44.598Z,14.40
2023-04-10T08:14:13.948Z,13.55
2023-04-10T08:16:49.606Z,12.55
2023-04-10T08:19:22.413Z,13.07
2023-04-10T08:21:51.736Z,12.07
2023-04-10T08:24:23.467Z,12.73
2023-04-10T08:26:53.284Z,12.52
2023-04-10T08:31:56.618Z,16.20
2023-04-10T08:34:30.996Z,13.90
2023-04-10T08:37:01.665Z,13.75
2023-04-10T08:39:31.143Z,13.73
2023-04-10T08:42:01.789Z,14.23
2023-04-10T08:44:31.816Z,14.13
2023-04-10T08:47:03.632Z,13.85
2023-04-10T08:49:45.986Z,13.52
2023-04-10T08:52:22.768Z,16.50
2023-04-10T08:54:58.747Z,14.90
2023-04-10T08:57:28.038Z,15.55
2023-04-10T08:59:58.506Z,13.23
2023-04-10T09:02:28.381Z,15.68
2023-04-10T09:05:04.601Z,15.65
2023-04-10T09:07:34.279Z,13.77
2023-04-10T09:10:07.093Z,13.63
2023-04-10T09:12:47.500Z,12.77
2023-04-10T09:15:19.824Z,15.73
2023-04-10T09:18:00.885Z,13.93
2023-04-10T09:20:34.791Z,12.77
2023-04-10T09:23:03.272Z,13.00
2023-04-10T09:25:35.794Z,17.63
2023-04-10T09:28:08.889Z,15.32
2023-04-10T09:30:42.182Z,12.75
2023-04-10T09:33:27.693Z,13.18
2023-04-10T09:36:02.509Z,13.95
2023-04-10T09:38:31.433Z,15.02
2023-04-10T09:41:11.255Z,16.85
2023-04-10T09:43:41.001Z,15.23
2023-04-10T09:46:10.144Z,14.82
2023-04-10T09:48:40.135Z,14.15
2023-04-10T09:51:31.216Z,17.20
2023-04-10T09:54:00.696Z,16.98
2023-04-10T09:56:31.735Z,15.05
2023-04-10T09:59:05.751Z,17.05
2023-04-10T10:01:36.316Z,17.05
2023-04-10T10:04:07.430Z,16.52
2023-04-10T10:06:43.523Z,17.45
2023-04-10T10:09:14.249Z,17.48
2023-04-10T10:11:44.136Z,16.27
2023-04-10T10:14:20.411Z,14.85
2023-04-10T10:16:57.692Z,13.23
2023-04-10T10:19:33.177Z,17.52
2023-04-10T10:22:06.317Z,17.33
2023-04-10T10:24:36.727Z,14.95
2023-04-10T10:27:12.785Z,15.68
2023-04-10T10:29:43.382Z,13.68
2023-04-10T10:32:15.824Z,17.15
2023-04-10T10:34:46.448Z,15.15
2023-04-10T10:37:34.165Z,12.40
2023-04-10T10:40:15.741Z,14.20
2023-04-10T10:42:55.749Z,14.50
2023-04-10T10:45:33.422Z,15.70
2023-04-10T10:48:03.531Z,13.45
2023-04-10T10:50:57.398Z,13.35
2023-04-10T10:53:40.592Z,15.20
2023-04-10T10:56:37.827Z,12.65
2023-04-10T10:59:08.802Z,11.82
2023-04-10T11:01:39.593Z,14.95
2023-04-10T11:04:45.852Z,11.95
2023-04-10T11:07:18.088Z,13.05
2023-04-10T11:09:53.408Z,13.00
2023-04-10T11:12:27.319Z,12.60
2023-04-10T11:15:02.078Z,15.00
2023-04-10T11:17:52.504Z,12.65
2023-04-10T11:20:27.387Z,11.93
2023-04-10T11:23:12.785Z,13.20
2023-04-10T11:25:55.838Z,11.68
2023-04-10T11:28:38.608Z,10.45
2023-04-10T11:31:22.089Z,9.55
2023-04-10T11:34:03.594Z,10.90
2023-04-10T11:36:34.720Z,13.82
2023-04-10T11:39:09.179Z,11.20
2023-04-10T11:41:42.559Z,12.48
2023-04-10T11:44:13.320Z,10.45
2023-04-10T11:46:48.141Z,10.10
2023-04-10T11:49:21.451Z,9.75
2023-04-10T11:51:52.862Z,10.90
2023-04-10T11:54:24.332Z,11.23
2023-04-10T11:57:05.090Z,11.30
2023-04-10T11:59:36.010Z,12.30
2023-04-10T12:02:10.817Z,8.63
2023-04-10T12:04:41.603Z,10.63
2023-04-10T12:07:11.654Z,9.07
2023-04-10T12:09:41.603Z,9.65
2023-04-10T12:12:15.416Z,9.52
2023-04-10T12:14:45.042Z,11.52
2023-04-10T12:17:15.150Z,8.57
2023-04-10T12:19:45.650Z,9.63
2023-04-10T12:22:16.754Z,8.48
2023-04-10T12:24:48.358Z,12.15
2023-04-10T12:27:23.995Z,13.88
2023-04-10T12:29:56.388Z,21.02
2023-04-10T12:32:28.069Z,10.05
2023-04-10T12:35:01.762Z,8.52
2023-04-10T12:37:50.059Z,10.65
2023-04-10T12:40:22.786Z,9.23
2023-04-10T12:42:53.697Z,12.43
2023-04-10T12:45:23.800Z,8.95
2023-04-10T12:47:54.637Z,7.60
2023-04-10T12:50:24.210Z,9.15
2023-04-10T12:53:10.043Z,13.63
2023-04-10T12:58:21.549Z,8.02
2023-04-10T13:00:52.411Z,8.98
2023-04-10T13:03:25.245Z,10.27
2023-04-10T13:05:54.974Z,7.10
2023-04-10T13:08:24.383Z,9.23
2023-04-10T13:10:57.039Z,6.18
2023-04-10T13:13:33.131Z,6.93
2023-04-10T13:16:02.979Z,8.85
2023-04-10T13:18:32.623Z,7.28
2023-04-10T13:21:01.260Z,5.53
2023-04-10T13:23:30.766Z,7.85
2023-04-10T13:26:00.116Z,6.68
2023-04-10T13:28:33.185Z,6.93
2023-04-10T13:31:04.080Z,6.90
2023-04-10T13:33:32.991Z,8.35
2023-04-10T13:36:02.045Z,10.30
2023-04-10T13:38:31.209Z,6.68
2023-04-10T13:41:00.018Z,6.78
2023-04-10T13:43:32.059Z,8.25
2023-04-10T13:46:01.871Z,6.75
2023-04-10T13:48:40.037Z,8.13
2023-04-10T13:51:10.245Z,7.47
2023-04-10T13:53:39.617Z,8.48
2023-04-10T13:56:12.031Z,8.45
2023-04-10T13:58:44.342Z,11.13
2023-04-10T14:01:16.288Z,9.18
2023-04-10T14:03:45.458Z,10.18
2023-04-10T14:06:14.801Z,10.65
2023-04-10T14:08:44.841Z,9.10
2023-04-10T14:11:14.049Z,8.15
2023-04-10T14:13:44.570Z,11.68
2023-04-10T14:16:14.296Z,9.70
2023-04-10T14:18:43.342Z,10.35
2023-04-10T14:21:12.858Z,8.48
2023-04-10T14:23:43.610Z,9.45
2023-04-10T14:26:12.375Z,10.23
2023-04-10T14:28:41.569Z,7.07
2023-04-10T14:31:12.545Z,7.70
2023-04-10T14:33:41.709Z,10.68
2023-04-10T14:36:12.400Z,10.40
2023-04-10T14:38:43.420Z,9.63
2023-04-10T14:41:13.406Z,12.50
2023-04-10T14:43:43.576Z,9.88
2023-04-10T14:46:14.342Z,9.88
2023-04-10T14:48:43.119Z,9.20
2023-04-10T14:51:14.093Z,14.95
2023-04-10T14:53:45.954Z,11.18
2023-04-10T14:56:17.124Z,10.57
2023-04-10T14:58:47.310Z,16.02
2023-04-10T15:01:18.935Z,12.63
2023-04-10T15:03:50.385Z,13.88
2023-04-10T15:06:20.117Z,15.10
2023-04-10T15:08:49.333Z,12.98
2023-04-10T15:11:20.226Z,14.40
2023-04-10T15:13:53.629Z,11.68
2023-04-10T15:16:24.442Z,12.00
2023-04-10T15:18:53.969Z,9.57
2023-04-10T15:21:23.780Z,12.65
2023-04-10T15:23:54.973Z,10.93
2023-04-10T15:26:27.618Z,11.90
2023-04-10T15:28:58.756Z,15.52
2023-04-10T15:31:28.977Z,12.55
2023-04-10T15:33:57.968Z,10.40
2023-04-10T15:36:28.005Z,14.70
2023-04-10T15:38:58.507Z,13.23
2023-04-10T15:41:31.798Z,12.48
2023-04-10T15:44:01.449Z,13.77
2023-04-10T15:46:34.494Z,11.88
2023-04-10T15:49:03.716Z,11.32
2023-04-10T15:51:33.635Z,15.68
2023-04-10T15:54:05.398Z,14.40
2023-04-10T15:56:34.609Z,12.70
2023-04-10T15:59:03.457Z,13.13
2023-04-10T16:01:35.382Z,13.70
2023-04-10T16:04:05.925Z,14.13
2023-04-10T16:06:36.159Z,12.88
2023-04-10T16:09:12.359Z,15.15
2023-04-10T16:11:52.309Z,13.30
2023-04-10T16:14:22.603Z,12.60
2023-04-10T16:16:54.684Z,16.92
2023-04-10T16:19:24.611Z,14.80
2023-04-10T16:21:53.590Z,14.50
2023-04-10T16:24:23.094Z,15.27
2023-04-10T16:26:57.198Z,16.83
2023-04-10T16:29:26.475Z,15.40
2023-04-10T16:31:57.025Z,13.40
2023-04-10T16:34:25.982Z,13.70
2023-04-10T16:37:02.993Z,14.35
2023-04-10T16:39:33.021Z,23.42
2023-04-10T16:42:03.564Z,16.77
2023-04-10T16:44:33.521Z,16.08
2023-04-10T16:47:06.423Z,15.32
2023-04-10T16:49:35.211Z,14.02
2023-04-10T16:52:05.824Z,12.40
2023-04-10T16:54:34.828Z,13.50
2023-04-10T16:57:04.079Z,11.48
2023-04-10T16:59:33.970Z,10.80
2023-04-10T17:02:04.544Z,9.32
2023-04-10T17:04:32.949Z,9.38
2023-04-10T17:07:05.514Z,8.68
2023-04-10T17:09:34.627Z,7.18
2023-04-10T17:12:03.417Z,7.60
2023-04-10T17:14:33.224Z,10.18
2023-04-10T17:17:19.016Z,6.80
2023-04-10T17:19:48.555Z,6.15
2023-04-10T17:22:21.174Z,9.23
2023-04-10T17:24:50.416Z,8.43
2023-04-10T17:27:19.367Z,7.75
2023-04-10T17:29:52.164Z,11.93
2023-04-10T17:32:26.301Z,11.73
2023-04-10T17:34:56.935Z,9.15
2023-04-10T17:37:26.250Z,9.23
2023-04-10T17:39:54.893Z,9.25
2023-04-10T17:42:27.297Z,13.50
2023-04-10T17:44:56.237Z,12.30
2023-04-10T17:47:27.017Z,11.82
2023-04-10T17:50:00.263Z,10.50
2023-04-10T17:52:28.966Z,9.85
2023-04-10T17:54:58.349Z,13.52
2023-04-10T17:57:28.471Z,11.25
2023-04-10T18:00:02.918Z,9.13
2023-04-10T18:02:39.020Z,12.00
2023-04-10T18:05:09.372Z,14.45
2023-04-10T18:07:40.246Z,11.00
2023-04-10T18:10:12.895Z,13.98
2023-04-10T18:12:43.964Z,11.93
2023-04-10T18:15:20.188Z,10.77
2023-04-10T18:17:54.761Z,10.90
2023-04-10T18:20:25.472Z,14.85
2023-04-10T18:22:59.186Z,14.00
2023-04-10T18:25:33.867Z,16.75
2023-04-10T18:28:14.889Z,17.33
2023-04-10T18:30:48.499Z,14.40
2023-04-10T18:33:24.734Z,17.88
2023-04-10T18:36:02.232Z,14.70
2023-04-10T18:38:35.331Z,16.38
2023-04-10T18:41:06.153Z,12.10
2023-04-10T18:43:41.447Z,12.65
2023-04-10T18:46:15.880Z,16.70
2023-04-10T18:48:54.047Z,18.23
2023-04-10T18:51:24.965Z,18.98
2023-04-10T18:53:59.171Z,14.68
2023-04-10T18:56:29.417Z,12.65
2023-04-10T18:59:00.640Z,15.00
2023-04-10T19:01:30.985Z,17.48
2023-04-10T19:04:02.673Z,15.50
2023-04-10T19:06:35.696Z,20.52
2023-04-10T19:09:05.593Z,15.85
2023-04-10T19:11:35.736Z,15.23
2023-04-10T19:14:08.120Z,19.13
2023-04-10T19:16:41.487Z,17.92
2023-04-10T19:19:14.863Z,20.52
2023-04-10T19:21:50.224Z,18.00
2023-04-10T19:24:23.120Z,17.65
2023-04-10T19:26:56.472Z,15.52
2023-04-10T19:29:26.234Z,19.00
2023-04-10T19:31:57.850Z,23.35
2023-04-10T19:34:30.403Z,17.05
2023-04-10T19:37:22.748Z,15.20
2023-04-10T19:39:54.217Z,16.05
2023-04-10T19:42:24.571Z,20.13
2023-04-10T19:44:57.840Z,21.02
2023-04-10T19:47:33.857Z,18.80
2023-04-10T19:50:06.684Z,17.75
2023-04-10T19:52:41.331Z,24.67
2023-04-10T19:55:12.246Z,19.42
2023-04-10T19:57:49.446Z,24.48
2023-04-10T20:00:23.651Z,18.50
2023-04-10T20:03:05.885Z,16.35
2023-04-10T20:05:46.916Z,24.25
2023-04-10T20:08:18.063Z,20.13
2023-04-10T20:10:47.693Z,17.90
2023-04-10T20:13:26.279Z,22.05
2023-04-10T20:15:59.929Z,23.15
2023-04-10T20:18:32.486Z,20.45
2023-04-10T20:21:14.400Z,19.48
2023-04-10T20:23:43.353Z,22.98
2023-04-10T20:26:16.629Z,19.13
2023-04-10T20:28:45.199Z,19.35
2023-04-10T20:31:15.775Z,20.83
2023-04-10T20:33:45.025Z,20.67
2023-04-10T20:36:15.466Z,22.25
2023-04-10T20:38:47.157Z,19.83
2023-04-10T20:41:16.845Z,23.05
2023-04-10T20:43:45.614Z,26.83
2023-04-10T20:46:14.129Z,27.27
2023-04-10T20:48:43.909Z,24.27
2023-04-10T20:51:14.529Z,23.90
2023-04-10T20:53:46.714Z,21.45
2023-04-10T20:56:16.223Z,27.30
2023-04-10T20:58:46.051Z,27.75
2023-04-10T21:01:15.373Z,28.23
2023-04-10T21:03:50.916Z,27.20
2023-04-10T21:06:19.866Z,23.15
2023-04-10T21:08:50.511Z,22.80
2023-04-10T21:11:20.600Z,20.52
2023-04-10T21:13:49.705Z,22.42
2023-04-10T21:16:19.646Z,23.73
2023-04-10T21:18:48.649Z,21.48
2023-04-10T21:21:17.910Z,22.15
2023-04-10T21:23:47.297Z,20.42
2023-04-10T21:26:19.579Z,23.30
2023-04-10T21:28:48.348Z,25.10
2023-04-10T21:31:17.145Z,27.30
2023-04-10T21:33:46.379Z,30.10
2023-04-10T21:36:17.705Z,31.65
2023-04-10T21:38:46.408Z,20.23
2023-04-10T21:41:15.670Z,34.95
2023-04-10T21:43:46.394Z,28.08
2023-04-10T21:46:16.183Z,33.97
2023-04-10T21:48:45.012Z,24.70
2023-04-10T21:51:13.812Z,25.70
2023-04-10T21:53:42.618Z,31.17
2023-04-10T21:56:12.580Z,25.17
2023-04-10T21:58:41.297Z,33.85
2023-04-10T22:01:14.519Z,27.50
2023-04-10T22:03:43.720Z,31.48
2023-04-10T22:06:13.090Z,17.27
2023-04-10T22:08:42.485Z,13.60
2023-04-10T22:11:15.696Z,17.27
2023-04-10T22:13:44.784Z,17.90
2023-04-10T22:16:15.805Z,17.45
2023-04-10T22:18:44.804Z,22.15
2023-04-10T22:21:14.199Z,23.63
2023-04-10T22:23:45.399Z,18.40
2023-04-10T22:26:15.455Z,14.02
2023-04-10T22:28:44.858Z,18.10
2023-04-10T22:31:20.038Z,13.65
2023-04-10T22:33:49.415Z,9.10
2023-04-10T22:36:18.204Z,12.70
2023-04-10T22:38:49.151Z,11.82
2023-04-10T22:41:17.594Z,15.15
2023-04-10T22:43:50.168Z,16.67
2023-04-10T22:46:21.846Z,15.82
2023-04-10T22:48:50.628Z,16.60
2023-04-10T22:51:19.702Z,26.83
2023-04-10T22:53:49.410Z,8.02
2023-04-10T22:56:19.447Z,13.88
2023-04-10T22:58:48.574Z,11.57
2023-04-10T23:01:17.250Z,10.50
2023-04-10T23:03:52.873Z,12.23
2023-04-10T23:06:22.091Z,13.90
2023-04-10T23:08:51.569Z,8.43
2023-04-10T23:11:20.545Z,14.48
2023-04-10T23:13:50.555Z,15.18
2023-04-10T23:16:20.212Z,12.25
2023-04-10T23:18:54.095Z,11.05
2023-04-10T23:21:26.613Z,19.30
2023-04-10T23:23:56.623Z,15.00
2023-04-10T23:26:26.489Z,15.95
2023-04-10T23:28:55.514Z,17.27
2023-04-10T23:31:24.425Z,15.98
2023-04-10T23:33:54.686Z,15.23
2023-04-10T23:36:28.374Z,18.33
2023-04-10T23:38:57.920Z,25.08
2023-04-10T23:41:27.765Z,19.67
2023-04-10T23:43:58.957Z,17.35
2023-04-10T23:46:28.075Z,19.27
2023-04-10T23:48:59.804Z,19.88
2023-04-10T23:51:32.001Z,27.65
2023-04-10T23:54:00.879Z,20.58
2023-04-10T23:56:31.845Z,13.32
2023-04-10T23:59:01.856Z,26.75
